createdAt,value
2022-08-05T00:02:22.777Z,80.36
2022-08-05T00:05:09.251Z,80.61
2022-08-05T00:08:34.592Z,82.83
2022-08-05T00:11:30.217Z,85.18
2022-08-05T00:14:18.053Z,87.58
2022-08-05T00:17:03.074Z,88.85
2022-08-05T00:20:01.923Z,90.43
2022-08-05T00:22:37.449Z,91.50
2022-08-05T00:25:13.457Z,91.63
2022-08-05T00:27:52.336Z,92.43
2022-08-05T00:30:37.591Z,92.83
2022-08-05T00:34:56.560Z,93.86
2022-08-05T00:37:11.240Z,93.34
2022-08-05T00:39:24.477Z,94.10
2022-08-05T00:42:06.467Z,94.13
2022-08-05T00:44:43.578Z,93.92
2022-08-05T00:47:21.639Z,93.90
2022-08-05T00:50:09.596Z,93.49
2022-08-05T00:52:41.800Z,93.38
2022-08-05T00:55:34.023Z,93.73
2022-08-05T00:58:29.597Z,94.81
2022-08-05T01:01:02.325Z,94.59
2022-08-05T01:03:52.851Z,94.18
2022-08-05T01:06:40.105Z,94.30
2022-08-05T01:09:20.609Z,93.96
2022-08-05T01:12:04.513Z,94.06
2022-08-05T01:15:35.404Z,95.03
2022-08-05T01:18:08.442Z,95.19
2022-08-05T01:21:52.806Z,94.82
2022-08-05T01:25:04.605Z,95.31
2022-08-05T01:28:11.421Z,95.34
2022-08-05T01:30:55.302Z,96.32
2022-08-05T01:33:51.997Z,97.03
2022-08-05T01:36:35.461Z,97.24
2022-08-05T01:39:45.550Z,97.51
2022-08-05T01:42:21.493Z,97.31
2022-08-05T01:44:59.860Z,96.87
2022-08-05T01:47:43.129Z,96.87
2022-08-05T01:50:36.516Z,97.25
2022-08-05T01:53:54.982Z,97.53
2022-08-05T01:58:12.153Z,97.94
2022-08-05T01:59:23.900Z,97.57
2022-08-05T02:02:13.935Z,98.41
2022-08-05T02:04:53.697Z,99.18
2022-08-05T02:07:30.378Z,99.54
2022-08-05T02:10:09.400Z,99.32
2022-08-05T02:12:46.873Z,99.39
2022-08-05T02:16:05.770Z,99.69
2022-08-05T02:18:51.493Z,100.00
2022-08-05T02:21:46.910Z,100.00
2022-08-05T02:24:38.638Z,100.00
2022-08-05T02:27:11.482Z,100.00
2022-08-05T02:29:59.216Z,100.00
2022-08-05T02:32:37.280Z,100.00
2022-08-05T02:35:27.942Z,100.00
2022-08-05T02:38:09.547Z,100.00
2022-08-05T02:40:52.829Z,100.00
2022-08-05T02:43:34.464Z,100.00
2022-08-05T02:46:29.031Z,100.00
2022-08-05T02:49:21.980Z,100.00
2022-08-05T02:52:04.800Z,100.00
2022-08-05T02:54:37.106Z,100.00
2022-08-05T02:58:20.087Z,100.00
2022-08-05T03:00:02.293Z,100.00
2022-08-05T03:02:42.918Z,100.00
2022-08-05T03:05:15.711Z,100.00
2022-08-05T03:08:04.441Z,100.00
2022-08-05T03:11:53.385Z,100.00
2022-08-05T03:13:52.036Z,100.00
2022-08-05T03:16:41.258Z,100.00
2022-08-05T03:19:20.308Z,100.00
2022-08-05T03:22:31.883Z,100.00
2022-08-05T03:25:34.016Z,100.00
2022-08-05T03:28:18.744Z,100.00
2022-08-05T03:30:48.771Z,100.00
2022-08-05T03:33:42.267Z,100.00
2022-08-05T03:36:35.609Z,100.00
2022-08-05T03:39:20.145Z,100.00
2022-08-05T03:42:07.141Z,100.00
2022-08-05T03:44:52.475Z,100.00
2022-08-05T03:47:25.341Z,100.00
2022-08-05T03:50:03.772Z,100.00
2022-08-05T03:54:59.343Z,100.00
2022-08-05T03:56:53.492Z,100.00
2022-08-05T03:59:46.888Z,100.00
2022-08-05T04:02:57.857Z,100.00
2022-08-05T04:05:42.160Z,100.00
2022-08-05T04:08:34.599Z,100.00
2022-08-05T04:11:16.476Z,100.00
2022-08-05T04:14:00.536Z,100.00
2022-08-05T04:16:37.010Z,100.00
2022-08-05T04:19:23.359Z,100.00
2022-08-05T04:22:10.359Z,100.00
2022-08-05T04:24:52.438Z,100.00
2022-08-05T04:27:41.653Z,100.00
2022-08-05T04:30:26.540Z,100.00
2022-08-05T04:33:04.600Z,100.00
2022-08-05T04:36:16.085Z,100.00
2022-08-05T04:38:56.507Z,100.00
2022-08-05T04:41:37.879Z,100.00
2022-08-05T04:44:08.948Z,100.00
2022-08-05T04:46:54.425Z,100.00
2022-08-05T04:49:38.482Z,100.00
2022-08-05T04:52:24.469Z,100.00
2022-08-05T04:55:14.569Z,100.00
2022-08-05T04:57:54.421Z,100.00
2022-08-05T05:00:27.466Z,100.00
2022-08-05T05:03:02.850Z,100.00
2022-08-05T05:06:39.617Z,100.00
2022-08-05T05:08:58.573Z,97.94
2022-08-05T05:11:54.101Z,93.78
2022-08-05T05:14:32.301Z,94.30
2022-08-05T05:17:07.461Z,93.42
2022-08-05T05:19:44.135Z,89.62
2022-08-05T05:22:26.407Z,84.50
2022-08-05T05:25:01.344Z,81.12
2022-08-05T05:28:11.186Z,81.13
2022-08-05T05:30:43.891Z,76.15
2022-08-05T05:33:27.981Z,72.95
2022-08-05T05:36:04.674Z,60.79
2022-08-05T05:38:48.259Z,57.02
2022-08-05T05:41:40.668Z,54.65
2022-08-05T05:44:36.338Z,55.97
2022-08-05T05:47:22.194Z,52.67
2022-08-05T05:49:56.891Z,51.66
2022-08-05T05:52:34.596Z,50.74
2022-08-05T05:55:16.456Z,52.16
2022-08-05T05:57:55.484Z,49.42
2022-08-05T06:00:45.802Z,46.79
2022-08-05T06:03:40.277Z,47.49
2022-08-05T06:06:34.791Z,46.82
2022-08-05T06:09:17.466Z,45.33
2022-08-05T06:11:59.071Z,45.92
2022-08-05T06:14:44.472Z,44.54
2022-08-05T06:17:24.528Z,45.87
2022-08-05T06:19:59.569Z,44.49
2022-08-05T06:22:37.198Z,43.52
2022-08-05T06:25:25.055Z,43.26
2022-08-05T06:28:22.133Z,42.50
2022-08-05T06:31:01.417Z,44.16
2022-08-05T06:34:07.157Z,40.31
2022-08-05T06:36:57.318Z,40.87
2022-08-05T06:39:43.113Z,40.14
2022-08-05T06:42:22.681Z,39.44
2022-08-05T06:45:05.574Z,37.83
2022-08-05T06:48:36.593Z,38.50
2022-08-05T06:50:37.436Z,41.19
2022-08-05T06:53:27.746Z,38.24
2022-08-05T06:56:05.877Z,39.77
2022-08-05T06:59:15.056Z,39.14
2022-08-05T07:01:47.669Z,39.47
2022-08-05T07:04:30.927Z,37.68
2022-08-05T07:07:07.869Z,36.92
2022-08-05T07:09:43.347Z,36.29
2022-08-05T07:12:37.694Z,37.48
2022-08-05T07:15:34.561Z,36.15
2022-08-05T07:18:34.727Z,36.17
2022-08-05T07:21:11.775Z,37.63
2022-08-05T07:23:58.633Z,34.95
2022-08-05T07:26:47.660Z,35.47
2022-08-05T07:30:22.849Z,35.52
2022-08-05T07:32:26.086Z,33.71
2022-08-05T07:36:01.876Z,34.38
2022-08-05T07:38:26.458Z,35.57
2022-08-05T07:42:13.711Z,34.29
2022-08-05T07:44:32.282Z,33.87
2022-08-05T07:47:10.223Z,34.57
2022-08-05T07:50:07.689Z,34.36
2022-08-05T07:52:42.362Z,32.55
2022-08-05T07:55:15.918Z,34.66
2022-08-05T07:58:55.059Z,34.48
2022-08-05T08:01:12.103Z,32.93
2022-08-05T08:03:55.911Z,32.11
2022-08-05T08:06:31.468Z,32.52
2022-08-05T08:09:01.494Z,31.16
2022-08-05T08:12:00.219Z,32.54
2022-08-05T08:14:48.592Z,31.46
2022-08-05T08:17:21.517Z,32.49
2022-08-05T08:20:21.697Z,29.87
2022-08-05T08:22:53.805Z,32.33
2022-08-05T08:25:59.863Z,30.77
2022-08-05T08:29:02.072Z,29.38
2022-08-05T08:31:38.665Z,30.86
2022-08-05T08:34:30.342Z,30.37
2022-08-05T08:37:19.373Z,29.51
2022-08-05T08:39:50.587Z,30.55
2022-08-05T08:42:46.810Z,28.83
2022-08-05T08:45:29.725Z,31.13
2022-08-05T08:48:22.239Z,28.61
2022-08-05T08:51:07.675Z,28.84
2022-08-05T08:53:59.728Z,28.69
2022-08-05T08:56:38.297Z,28.07
2022-08-05T08:59:33.583Z,27.65
2022-08-05T09:02:08.592Z,28.70
2022-08-05T09:04:58.543Z,27.53
2022-08-05T09:07:57.331Z,28.09
2022-08-05T09:10:34.142Z,27.76
2022-08-05T09:13:11.394Z,29.03
2022-08-05T09:15:52.609Z,27.84
2022-08-05T09:18:31.482Z,27.29
2022-08-05T09:21:01.537Z,27.81
2022-08-05T09:23:45.701Z,28.29
2022-08-05T09:26:22.620Z,27.57
2022-08-05T09:29:04.745Z,26.67
2022-08-05T09:32:39.941Z,27.12
2022-08-05T09:34:51.813Z,27.10
2022-08-05T09:38:17.146Z,27.12
2022-08-05T09:40:53.851Z,25.84
2022-08-05T09:43:45.984Z,24.92
2022-08-05T09:46:51.668Z,26.24
2022-08-05T09:49:54.628Z,26.78
2022-08-05T09:52:45.110Z,25.71
2022-08-05T09:55:56.650Z,25.63
2022-08-05T09:58:29.053Z,26.75
2022-08-05T10:01:32.077Z,24.23
2022-08-05T10:04:18.451Z,25.58
2022-08-05T10:07:20.213Z,24.89
2022-08-05T10:10:14.997Z,26.47
2022-08-05T10:12:52.930Z,25.90
2022-08-05T10:15:35.418Z,25.38
2022-08-05T10:18:27.605Z,25.20
2022-08-05T10:21:11.780Z,26.47
2022-08-05T10:24:10.665Z,27.60
2022-08-05T10:27:02.957Z,25.99
2022-08-05T10:30:06.359Z,25.63
2022-08-05T10:32:59.791Z,24.04
2022-08-05T10:35:59.922Z,25.36
2022-08-05T10:38:35.052Z,24.47
2022-08-05T10:41:15.481Z,24.48
2022-08-05T10:44:10.023Z,25.14
2022-08-05T10:46:55.973Z,25.83
2022-08-05T10:50:28.075Z,23.97
2022-08-05T10:54:23.381Z,24.78
2022-08-05T10:57:04.511Z,24.81
2022-08-05T11:00:02.161Z,24.15
2022-08-05T11:02:38.109Z,24.52
2022-08-05T11:05:18.287Z,23.18
2022-08-05T11:08:36.606Z,24.04
2022-08-05T11:11:53.344Z,24.60
2022-08-05T11:15:01.183Z,22.53
2022-08-05T11:17:59.229Z,23.44
2022-08-05T11:20:52.717Z,23.32
2022-08-05T11:24:03.166Z,23.71
2022-08-05T11:26:32.443Z,23.85
2022-08-05T11:29:12.828Z,22.70
2022-08-05T11:32:19.487Z,22.71
2022-08-05T11:34:59.952Z,22.28
2022-08-05T11:38:28.001Z,23.41
2022-08-05T11:41:56.199Z,24.08
2022-08-05T11:44:21.560Z,22.96
2022-08-05T11:47:15.124Z,22.29
2022-08-05T11:50:07.290Z,24.04
2022-08-05T11:52:49.470Z,21.47
2022-08-05T11:55:32.121Z,21.06
2022-08-05T11:58:14.499Z,20.72
2022-08-05T12:00:56.471Z,21.68
2022-08-05T12:03:31.468Z,22.53
2022-08-05T12:06:20.874Z,21.93
2022-08-05T12:09:09.725Z,23.25
2022-08-05T12:11:57.636Z,23.31
2022-08-05T12:14:47.170Z,22.08
2022-08-05T12:18:00.695Z,21.14
2022-08-05T12:20:39.507Z,21.88
2022-08-05T12:23:21.905Z,23.65
2022-08-05T12:26:05.157Z,21.78
2022-08-05T12:28:49.865Z,24.13
2022-08-05T12:31:42.439Z,21.47
2022-08-05T12:34:23.533Z,21.92
2022-08-05T12:37:03.285Z,21.22
2022-08-05T12:39:44.381Z,21.01
2022-08-05T12:42:36.702Z,21.30
2022-08-05T12:45:42.697Z,21.76
2022-08-05T12:48:27.332Z,21.11
2022-08-05T12:52:10.014Z,22.54
2022-08-05T12:54:26.613Z,20.37
2022-08-05T12:57:03.781Z,20.72
2022-08-05T13:02:00.844Z,21.38
2022-08-05T13:02:59.757Z,21.91
2022-08-05T13:05:47.431Z,22.47
2022-08-05T13:08:28.891Z,20.48
2022-08-05T13:11:25.322Z,21.72
2022-08-05T13:14:36.776Z,21.37
2022-08-05T13:17:42.280Z,22.77
2022-08-05T13:20:31.731Z,21.03
2022-08-05T13:23:07.396Z,20.68
2022-08-05T13:25:58.904Z,21.32
2022-08-05T13:28:59.526Z,19.58
2022-08-05T13:32:04.282Z,20.96
2022-08-05T13:34:49.186Z,20.40
2022-08-05T13:37:34.968Z,20.09
2022-08-05T13:40:45.843Z,21.20
2022-08-05T13:43:44.304Z,20.14
2022-08-05T13:46:44.320Z,19.10
2022-08-05T13:49:22.503Z,20.40
2022-08-05T13:51:55.484Z,20.15
2022-08-05T13:54:36.273Z,19.34
2022-08-05T13:57:10.665Z,20.41
2022-08-05T14:00:01.896Z,19.68
2022-08-05T14:02:54.996Z,20.76
2022-08-05T14:06:04.787Z,19.60
2022-08-05T14:08:32.989Z,19.38
2022-08-05T14:11:20.490Z,18.67
2022-08-05T14:13:54.764Z,17.71
2022-08-05T14:16:37.534Z,19.40
2022-08-05T14:19:17.812Z,19.17
2022-08-05T14:22:09.941Z,17.23
2022-08-05T14:24:46.658Z,19.71
2022-08-05T14:27:18.334Z,19.82
2022-08-05T14:29:57.562Z,19.92
2022-08-05T14:32:37.026Z,18.31
2022-08-05T14:35:22.863Z,18.64
2022-08-05T14:38:01.103Z,19.69
2022-08-05T14:40:36.667Z,20.78
2022-08-05T14:43:59.243Z,19.66
2022-08-05T14:46:27.993Z,18.93
2022-08-05T14:49:14.061Z,19.30
2022-08-05T14:51:49.749Z,17.85
2022-08-05T14:54:30.329Z,18.51
2022-08-05T14:57:13.946Z,19.33
2022-08-05T14:59:54.997Z,18.79
2022-08-05T15:02:45.012Z,20.76
2022-08-05T15:05:20.595Z,19.33
2022-08-05T15:08:06.238Z,20.15
2022-08-05T15:10:46.087Z,18.62
2022-08-05T15:13:28.609Z,19.23
2022-08-05T15:16:19.428Z,19.76
2022-08-05T15:19:03.293Z,19.80
2022-08-05T15:21:42.556Z,20.66
2022-08-05T15:24:21.493Z,20.65
2022-08-05T15:27:09.011Z,19.63
2022-08-05T15:29:42.189Z,18.87
2022-08-05T15:32:12.835Z,19.26
2022-08-05T15:34:53.418Z,21.49
2022-08-05T15:38:08.601Z,20.46
2022-08-05T15:41:02.822Z,21.25
2022-08-05T15:43:46.066Z,19.60
2022-08-05T15:46:29.757Z,20.29
2022-08-05T15:49:10.301Z,23.30
2022-08-05T15:52:10.173Z,20.21
2022-08-05T15:54:52.948Z,20.00
2022-08-05T15:57:37.099Z,18.55
2022-08-05T16:00:26.420Z,19.49
2022-08-05T16:03:25.896Z,20.32
2022-08-05T16:06:11.713Z,19.25
2022-08-05T16:08:44.561Z,18.93
2022-08-05T16:11:42.921Z,19.02
2022-08-05T16:14:31.434Z,17.81
2022-08-05T16:17:14.602Z,17.75
2022-08-05T16:20:03.000Z,18.56
2022-08-05T16:22:39.795Z,19.49
2022-08-05T16:25:34.012Z,19.28
2022-08-05T16:28:10.681Z,18.61
2022-08-05T16:30:52.504Z,16.67
2022-08-05T16:33:41.346Z,16.91
2022-08-05T16:36:12.033Z,16.69
2022-08-05T16:38:55.590Z,15.27
2022-08-05T16:42:14.277Z,16.45
2022-08-05T16:44:44.426Z,16.75
2022-08-05T16:47:48.236Z,16.46
2022-08-05T16:50:35.338Z,17.21
2022-08-05T16:53:12.362Z,16.70
2022-08-05T16:55:56.521Z,17.85
2022-08-05T16:58:32.159Z,16.83
2022-08-05T17:01:11.881Z,17.32
2022-08-05T17:03:54.994Z,16.98
2022-08-05T17:06:33.861Z,18.13
2022-08-05T17:09:11.705Z,17.49
2022-08-05T17:11:48.996Z,18.87
2022-08-05T17:14:38.395Z,20.16
2022-08-05T17:17:14.989Z,20.02
2022-08-05T17:19:59.545Z,20.53
2022-08-05T17:22:35.821Z,20.96
2022-08-05T17:25:09.719Z,21.33
2022-08-05T17:27:57.449Z,23.62
2022-08-05T17:30:50.715Z,25.99
2022-08-05T17:33:23.593Z,27.38
2022-08-05T17:36:07.486Z,27.85
2022-08-05T17:38:50.692Z,29.59
2022-08-05T17:42:19.843Z,30.89
2022-08-05T17:44:32.559Z,32.16
2022-08-05T17:47:11.975Z,33.00
2022-08-05T17:50:04.222Z,34.06
2022-08-05T17:52:52.718Z,35.27
2022-08-05T17:55:38.332Z,35.66
2022-08-05T17:58:22.087Z,36.98
2022-08-05T18:01:08.222Z,36.70
2022-08-05T18:03:56.016Z,37.89
2022-08-05T18:06:29.406Z,39.71
2022-08-05T18:09:14.638Z,39.55
2022-08-05T18:11:52.625Z,40.55
2022-08-05T18:14:36.523Z,42.80
2022-08-05T18:17:59.491Z,41.16
2022-08-05T18:20:16.514Z,40.00
2022-08-05T18:23:09.289Z,42.31
2022-08-05T18:25:57.471Z,41.44
2022-08-05T18:28:42.528Z,41.16
2022-08-05T18:31:21.694Z,42.18
2022-08-05T18:33:54.285Z,41.63
2022-08-05T18:36:43.632Z,42.61
2022-08-05T18:39:22.601Z,43.78
2022-08-05T18:42:21.355Z,44.59
2022-08-05T18:45:04.085Z,46.17
2022-08-05T18:47:38.176Z,46.01
2022-08-05T18:50:42.222Z,45.64
2022-08-05T18:53:22.138Z,46.58
2022-08-05T18:55:51.530Z,47.05
2022-08-05T18:58:29.194Z,47.62
2022-08-05T19:01:05.344Z,48.20
2022-08-05T19:03:55.685Z,48.08
2022-08-05T19:06:44.748Z,49.56
2022-08-05T19:09:26.139Z,50.36
2022-08-05T19:12:00.375Z,51.43
2022-08-05T19:15:00.685Z,53.49
2022-08-05T19:18:09.053Z,54.70
2022-08-05T19:20:49.503Z,55.67
2022-08-05T19:24:04.373Z,55.94
2022-08-05T19:26:21.341Z,56.77
2022-08-05T19:28:54.998Z,58.32
2022-08-05T19:31:45.005Z,59.23
2022-08-05T19:34:25.710Z,58.80
2022-08-05T19:37:00.858Z,59.71
2022-08-05T19:39:45.943Z,58.80
2022-08-05T19:42:36.498Z,58.18
2022-08-05T19:45:20.258Z,58.55
2022-08-05T19:48:04.325Z,58.07
2022-08-05T19:50:44.867Z,57.81
2022-08-05T19:54:03.685Z,58.57
2022-08-05T19:56:27.526Z,58.95
2022-08-05T19:59:50.998Z,58.82
2022-08-05T20:02:13.601Z,59.84
2022-08-05T20:04:51.015Z,59.48
2022-08-05T20:07:48.826Z,60.63
2022-08-05T20:10:36.274Z,60.43
2022-08-05T20:13:15.625Z,60.29
2022-08-05T20:15:57.641Z,60.18
2022-08-05T20:18:35.995Z,60.34
2022-08-05T20:21:23.328Z,60.63
2022-08-05T20:23:53.499Z,60.85
2022-08-05T20:26:30.896Z,61.27
2022-08-05T20:29:26.819Z,61.06
2022-08-05T20:32:11.526Z,60.61
2022-08-05T20:34:51.539Z,61.09
2022-08-05T20:38:04.546Z,62.46
2022-08-05T20:40:20.533Z,63.01
2022-08-05T20:42:53.834Z,62.06
2022-08-05T20:45:56.088Z,61.99
2022-08-05T20:48:26.585Z,61.61
2022-08-05T20:51:01.694Z,62.18
2022-08-05T20:53:56.442Z,61.44
2022-08-05T20:56:35.436Z,60.54
2022-08-05T20:59:18.908Z,60.08
2022-08-05T21:02:02.415Z,60.21
2022-08-05T21:04:43.283Z,59.62
2022-08-05T21:07:51.008Z,59.38
2022-08-05T21:10:23.205Z,60.57
2022-08-05T21:13:11.202Z,60.90
2022-08-05T21:15:55.504Z,60.86
2022-08-05T21:18:31.650Z,62.07
2022-08-05T21:21:15.710Z,63.36
2022-08-05T21:24:04.393Z,64.91
2022-08-05T21:26:34.675Z,67.09
2022-08-05T21:29:18.950Z,68.02
2022-08-05T21:31:59.245Z,68.04
2022-08-05T21:34:33.046Z,67.56
2022-08-05T21:37:10.912Z,67.33
2022-08-05T21:39:48.953Z,66.16
2022-08-05T21:42:30.895Z,66.62
2022-08-05T21:45:51.445Z,68.60
2022-08-05T21:48:31.818Z,64.86
2022-08-05T21:52:16.352Z,65.25
2022-08-05T21:54:08.554Z,64.71
2022-08-05T21:56:51.448Z,66.65
2022-08-05T21:59:54.149Z,67.67
2022-08-05T22:02:36.140Z,68.04
2022-08-05T22:05:10.169Z,68.21
2022-08-05T22:07:59.492Z,66.83
2022-08-05T22:10:51.781Z,67.38
2022-08-05T22:14:31.360Z,67.79
2022-08-05T22:16:40.484Z,68.97
2022-08-05T22:20:01.004Z,69.48
2022-08-05T22:22:26.657Z,70.79
2022-08-05T22:25:18.262Z,72.33
2022-08-05T22:28:08.609Z,75.25
2022-08-05T22:31:05.726Z,75.78
2022-08-05T22:33:57.387Z,76.50
2022-08-05T22:36:37.053Z,75.95
2022-08-05T22:39:22.871Z,75.76
2022-08-05T22:42:12.666Z,76.65
2022-08-05T22:44:56.556Z,77.74
2022-08-05T22:47:38.404Z,78.14
2022-08-05T22:50:26.578Z,78.83
2022-08-05T22:53:16.836Z,78.29
2022-08-05T22:56:00.834Z,77.20
2022-08-05T22:58:39.337Z,77.89
2022-08-05T23:01:23.901Z,77.24
2022-08-05T23:04:32.530Z,75.55
2022-08-05T23:07:01.755Z,75.36
2022-08-05T23:09:57.702Z,76.50
2022-08-05T23:12:40.966Z,76.41
2022-08-05T23:15:19.743Z,75.13
2022-08-05T23:18:03.236Z,75.03
2022-08-05T23:20:43.210Z,75.63
2022-08-05T23:23:23.781Z,76.23
2022-08-05T23:26:08.530Z,78.65
2022-08-05T23:28:45.423Z,77.27
2022-08-05T23:31:31.176Z,75.70
2022-08-05T23:34:03.933Z,75.22
2022-08-05T23:36:40.217Z,75.06
2022-08-05T23:39:32.598Z,76.13
2022-08-05T23:42:37.421Z,76.74
2022-08-05T23:45:14.375Z,76.23
2022-08-05T23:47:52.022Z,75.70
2022-08-05T23:50:40.448Z,76.38
2022-08-05T23:53:22.689Z,78.21
2022-08-05T23:55:59.007Z,78.48
2022-08-05T23:58:31.887Z,78.14
